Time;durP1;ratioP1;P1;durP2;ratioP2;P2;SDS_P1;SDS_P2;PMS_P1;PMS_P2;Temp;Humidity;BMP_temperature;BMP_pressure;BME280_temperature;BME280_humidity;BME280_pressure;Samples;Min_cycle;Max_cycle;Signal;HPM_P1;HPM_P2
2022/05/07 00:01:55;;;;;;;0.00;0.00;;;;;;;12.06;74.86;102285.25;10498883;28;20127;-78
2022/05/07 00:06:56;;;;;;;0.00;0.00;;;;;;;11.90;74.98;102280.22;10495094;28;20056;-78
2022/05/07 00:11:59;;;;;;;0.00;0.00;;;;;;;11.91;76.05;102274.25;10515117;28;20052;-78
2022/05/07 00:22:21;;;;;;;0.00;0.00;;;;;;;11.81;74.99;102265.22;10539405;28;20040;-78
2022/05/07 00:27:23;;;;;;;0.00;0.00;;;;;;;11.64;75.60;102264.53;10539481;28;20089;-78
2022/05/07 00:32:24;;;;;;;0.00;0.00;;;;;;;11.69;76.02;102263.00;10538410;28;20437;-78
2022/05/07 00:37:26;;;;;;;0.00;0.00;;;;;;;11.57;76.35;102259.91;10520214;28;20068;-78
2022/05/07 00:42:28;;;;;;;0.00;0.00;;;;;;;11.51;76.86;102259.63;10537215;28;20553;-78
2022/05/07 00:47:34;;;;;;;0.00;0.00;;;;;;;11.22;77.19;102256.63;10527961;28;20109;-78
2022/05/07 00:52:36;;;;;;;0.00;0.00;;;;;;;11.09;78.56;102250.94;10535382;28;20048;-78
2022/05/07 00:57:38;;;;;;;0.00;0.00;;;;;;;11.47;76.45;102249.97;10532292;28;20059;-78
2022/05/07 01:02:41;;;;;;;0.00;0.00;;;;;;;11.57;74.68;102253.03;10538833;28;20044;-78
2022/05/07 01:07:45;;;;;;;0.00;0.00;;;;;;;11.39;76.87;102247.09;10542496;28;20519;-78
2022/05/07 01:12:49;;;;;;;0.00;0.00;;;;;;;11.36;78.44;102245.22;10510211;28;20044;-78
2022/05/07 01:17:51;;;;;;;0.63;0.63;;;;;;;11.67;74.24;102243.97;10545420;28;20048;-79
2022/05/07 01:22:53;;;;;;;0.00;0.00;;;;;;;11.67;77.36;102243.13;10546642;28;20048;-78
2022/05/07 01:28:00;;;;;;;0.00;0.00;;;;;;;11.90;73.57;102241.50;10544068;28;20106;-78
2022/05/07 01:33:03;;;;;;;0.00;0.00;;;;;;;11.39;78.23;102241.91;10542684;28;20044;-78
2022/05/07 01:38:13;;;;;;;0.00;0.00;;;;;;;11.45;78.71;102236.13;10537571;28;20503;-78
2022/05/07 01:43:16;;;;;;;0.00;0.00;;;;;;;11.50;79.23;102229.47;10538894;28;20079;-78
2022/05/07 01:48:19;;;;;;;0.00;0.00;;;;;;;11.56;78.66;102230.63;10542385;28;20071;-78
2022/05/07 01:53:25;;;;;;;0.03;0.03;;;;;;;11.91;76.62;102225.19;10530833;28;20063;-77
2022/05/07 01:58:29;;;;;;;11.30;5.32;;;;;;;11.87;76.73;102231.91;10498040;28;20051;-78
2022/05/07 02:03:38;;;;;;;0.00;0.00;;;;;;;11.96;75.99;102236.56;10487247;28;20048;-78
2022/05/07 02:08:43;;;;;;;0.00;0.00;;;;;;;11.91;75.44;102228.63;10542913;28;20141;-78
2022/05/07 02:13:53;;;;;;;0.00;0.00;;;;;;;12.04;74.52;102230.06;10543290;28;20672;-78
2022/05/07 02:18:56;;;;;;;0.00;0.00;;;;;;;11.90;74.36;102226.00;10542126;28;20102;-78
2022/05/07 02:23:57;;;;;;;0.00;0.00;;;;;;;11.81;74.59;102223.03;10544164;28;20059;-78
2022/05/07 02:28:59;;;;;;;0.00;0.00;;;;;;;11.88;73.65;102222.47;10541683;28;20052;-78
2022/05/07 02:34:01;;;;;;;0.00;0.00;;;;;;;11.68;75.34;102227.69;10500680;28;20049;-78
2022/05/07 02:39:03;;;;;;;0.00;0.00;;;;;;;11.51;74.81;102228.63;10510666;28;20051;-78
2022/05/07 02:44:06;;;;;;;0.00;0.00;;;;;;;11.87;73.34;102221.59;10500445;28;20458;-78
2022/05/07 02:49:10;;;;;;;0.00;0.00;;;;;;;11.83;73.80;102218.81;10523877;28;20139;-78
2022/05/07 02:54:12;;;;;;;0.00;0.00;;;;;;;11.78;74.97;102225.50;10540226;28;20052;-78
2022/05/07 02:59:16;;;;;;;0.00;0.00;;;;;;;11.69;74.82;102216.53;10524958;28;20188;-77
2022/05/07 03:04:20;;;;;;;2.05;1.95;;;;;;;11.62;75.50;102219.69;10517628;28;20052;-78
2022/05/07 03:09:22;;;;;;;0.00;0.00;;;;;;;11.44;75.08;102219.78;10500414;28;20052;-78
2022/05/07 03:14:25;;;;;;;0.00;0.00;;;;;;;11.67;75.00;102215.59;10500504;28;20041;-77
2022/05/07 03:19:27;;;;;;;0.00;0.00;;;;;;;11.33;76.52;102216.72;10481872;28;20060;-78
2022/05/07 03:24:30;;;;;;;0.00;0.00;;;;;;;11.47;75.60;102209.56;10516177;28;20051;-78
2022/05/07 03:29:36;;;;;;;0.00;0.00;;;;;;;11.66;74.45;102218.09;10538959;28;20051;-78
2022/05/07 03:34:46;;;;;;;0.00;0.00;;;;;;;11.41;76.53;102215.38;10539973;28;20051;-78
2022/05/07 03:39:50;;;;;;;0.00;0.00;;;;;;;11.51;75.27;102210.56;10536943;28;20048;-78
2022/05/07 03:44:53;;;;;;;0.00;0.00;;;;;;;11.47;75.61;102219.00;10503541;28;20060;-78
2022/05/07 03:49:55;;;;;;;0.10;0.10;;;;;;;11.58;75.48;102207.44;10498497;28;20118;-78
2022/05/07 03:54:57;;;;;;;0.00;0.00;;;;;;;11.54;76.52;102210.72;10528360;28;20118;-78
2022/05/07 04:00:00;;;;;;;0.00;0.00;;;;;;;11.54;76.18;102205.56;10525711;28;20063;-78
2022/05/07 04:05:14;;;;;;;0.00;0.00;;;;;;;11.70;76.15;102207.09;10512368;28;20048;-77
2022/05/07 04:10:16;;;;;;;0.00;0.00;;;;;;;11.58;76.00;102208.34;10513532;28;20070;-80
2022/05/07 04:15:22;;;;;;;0.00;0.00;;;;;;;11.70;75.64;102218.31;10536746;28;20439;-79
2022/05/07 04:20:28;;;;;;;0.00;0.00;;;;;;;11.84;74.41;102215.41;10507871;28;20067;-79
2022/05/07 04:25:38;;;;;;;0.00;0.00;;;;;;;11.89;74.91;102213.91;10501498;28;20099;-79
2022/05/07 04:30:42;;;;;;;0.00;0.00;;;;;;;11.71;76.25;102217.50;10496370;28;20102;-79
2022/05/07 04:35:48;;;;;;;0.00;0.00;;;;;;;11.83;75.77;102213.66;10496536;28;20053;-78
2022/05/07 04:40:54;;;;;;;0.00;0.00;;;;;;;12.09;75.24;102214.75;10511965;28;20499;-79
2022/05/07 04:46:06;;;;;;;0.00;0.00;;;;;;;12.14;75.49;102214.94;10495146;28;20512;-78
2022/05/07 04:51:08;;;;;;;0.00;0.00;;;;;;;12.32;74.98;102220.84;10497562;28;20040;-79
2022/05/07 04:56:37;;;;;;;0.00;0.00;;;;;;;12.34;75.50;102218.34;10534950;28;20043;-79
2022/05/07 05:01:42;;;;;;;0.00;0.00;;;;;;;12.54;74.94;102204.47;10525438;28;20041;-79
2022/05/07 05:06:47;;;;;;;0.40;0.40;;;;;;;12.64;74.99;102208.31;10537376;28;20383;-79
2022/05/07 05:11:52;;;;;;;0.00;0.00;;;;;;;12.94;73.72;102215.44;10515200;28;20041;-78
2022/05/07 05:16:55;;;;;;;0.00;0.00;;;;;;;12.79;75.12;102220.03;10495948;28;20064;-78
2022/05/07 05:21:58;;;;;;;0.00;0.00;;;;;;;13.09;74.43;102222.00;10493698;28;20049;-79
2022/05/07 05:27:05;;;;;;;0.65;0.65;;;;;;;13.25;74.03;102226.06;10528358;28;20130;-79
2022/05/07 05:32:17;;;;;;;0.00;0.00;;;;;;;13.43;75.10;102231.03;10553028;28;20044;-79
2022/05/07 05:37:22;;;;;;;0.00;0.00;;;;;;;13.67;73.78;102232.69;10528931;28;20063;-79
2022/05/07 05:42:24;;;;;;;0.00;0.00;;;;;;;13.93;72.89;102239.66;10518167;28;20418;-78
2022/05/07 05:47:26;;;;;;;0.17;0.17;;;;;;;13.87;72.75;102231.69;10502784;28;20410;-78
2022/05/07 05:52:28;;;;;;;0.00;0.00;;;;;;;14.10;73.24;102229.00;10500233;28;20106;-78
2022/05/07 05:57:30;;;;;;;3.42;0.95;;;;;;;14.12;73.00;102232.47;10521664;28;20048;-78
2022/05/07 06:02:32;;;;;;;0.65;0.45;;;;;;;14.16;72.29;102236.97;10536705;28;20054;-79
2022/05/07 06:07:36;;;;;;;0.00;0.00;;;;;;;14.61;72.23;102238.34;10540983;28;20388;-79
2022/05/07 06:12:38;;;;;;;0.25;0.25;;;;;;;14.77;70.77;102237.16;10541689;28;20051;-78
2022/05/07 06:17:39;;;;;;;0.98;0.98;;;;;;;14.83;69.95;102247.69;10531503;28;20052;-79
2022/05/07 06:22:46;;;;;;;0.30;0.30;;;;;;;15.15;68.94;102244.28;10502873;28;20094;-78
2022/05/07 06:27:48;;;;;;;0.00;0.00;;;;;;;15.96;67.69;102244.72;10529144;28;20078;-79
2022/05/07 06:32:55;;;;;;;3.00;1.02;;;;;;;16.42;66.13;102257.97;10540613;28;20048;-80
2022/05/07 06:38:03;;;;;;;0.10;0.10;;;;;;;16.59;65.61;102251.44;10535948;28;20052;-79
2022/05/07 06:43:09;;;;;;;0.75;0.70;;;;;;;16.38;65.49;102270.00;10540004;28;20044;-79
2022/05/07 06:48:27;;;;;;;0.20;0.20;;;;;;;16.50;66.10;102259.88;10522704;28;20059;-79
2022/05/07 06:53:34;;;;;;;1.83;0.73;;;;;;;17.16;63.31;102264.81;10522117;28;20388;-79
2022/05/07 06:58:35;;;;;;;0.00;0.00;;;;;;;17.02;64.27;102264.50;10535521;28;20106;-80
2022/05/07 07:03:37;;;;;;;0.00;0.00;;;;;;;17.03;63.47;102268.88;10534165;28;20109;-80
2022/05/07 07:08:39;;;;;;;0.52;0.52;;;;;;;16.93;62.51;102264.34;10533877;28;20113;-80
2022/05/07 07:13:42;;;;;;;0.00;0.00;;;;;;;17.16;63.55;102261.34;10535365;28;20048;-80
2022/05/07 07:18:44;;;;;;;0.13;0.13;;;;;;;17.52;62.52;102275.91;10533966;28;20124;-79
2022/05/07 07:23:46;;;;;;;0.00;0.00;;;;;;;17.74;60.20;102266.75;10531566;28;20490;-79
2022/05/07 07:28:48;;;;;;;0.10;0.10;;;;;;;17.73;59.72;102265.91;10532647;28;20075;-80
2022/05/07 07:33:50;;;;;;;0.28;0.28;;;;;;;18.02;58.94;102262.94;10523341;28;20091;-78
2022/05/07 07:38:51;;;;;;;0.10;0.10;;;;;;;17.89;56.85;102266.16;10530560;28;20491;-80
2022/05/07 07:43:53;;;;;;;0.70;0.47;;;;;;;18.47;56.00;102265.38;10534942;28;20380;-79
2022/05/07 07:48:55;;;;;;;0.32;0.32;;;;;;;19.36;52.42;102275.25;10526667;28;20090;-80
2022/05/07 07:53:56;;;;;;;0.32;0.32;;;;;;;19.41;52.83;102273.56;10513035;28;20048;-79
2022/05/07 07:58:58;;;;;;;0.38;0.38;;;;;;;19.38;51.90;102278.75;10534607;28;20093;-79
2022/05/07 08:03:59;;;;;;;0.00;0.00;;;;;;;19.97;50.24;102270.66;10509827;28;20052;-80
2022/05/07 08:14:22;;;;;;;0.00;0.00;;;;;;;20.18;50.71;102266.47;10493926;28;20056;-77
2022/05/07 08:19:24;;;;;;;0.00;0.00;;;;;;;20.53;48.39;102257.09;10529815;28;20435;-79
2022/05/07 08:24:25;;;;;;;0.10;0.10;;;;;;;21.18;47.19;102258.31;10535981;28;20089;-79
2022/05/07 08:29:27;;;;;;;0.30;0.30;;;;;;;21.16;46.65;102272.25;10533440;28;20083;-80
2022/05/07 08:34:29;;;;;;;0.00;0.00;;;;;;;22.38;49.03;102264.53;10520886;28;20056;-79
2022/05/07 08:39:36;;;;;;;0.00;0.00;;;;;;;22.02;46.04;102271.56;10531671;28;20055;-79
2022/05/07 08:44:37;;;;;;;1.27;1.05;;;;;;;22.06;45.24;102273.31;10533335;28;20055;-79
2022/05/07 08:49:39;;;;;;;0.47;0.47;;;;;;;22.34;47.42;102270.66;10531248;28;20105;-79
2022/05/07 08:54:41;;;;;;;0.00;0.00;;;;;;;22.81;43.66;102264.47;10534005;28;20048;-81
2022/05/07 08:59:43;;;;;;;1.17;0.47;;;;;;;22.12;44.14;102268.06;10539946;28;20056;-82
2022/05/07 09:04:56;;;;;;;0.10;0.10;;;;;;;22.89;44.58;102260.94;10533296;28;20059;-82
2022/05/07 09:09:58;;;;;;;0.20;0.20;;;;;;;22.11;45.46;102268.09;10533271;28;20529;-82
2022/05/07 09:15:05;;;;;;;0.00;0.00;;;;;;;22.85;43.56;102265.31;10529955;28;20055;-80
2022/05/07 09:20:21;;;;;;;1.15;1.00;;;;;;;22.55;44.03;102266.28;10533923;28;20052;-82
2022/05/07 09:25:24;;;;;;;0.00;0.00;;;;;;;22.58;44.83;102261.03;10526296;28;20048;-82
2022/05/07 09:30:28;;;;;;;0.00;0.00;;;;;;;22.85;42.55;102253.94;10537574;28;20117;-83
2022/05/07 09:35:49;;;;;;;0.00;0.00;;;;;;;22.99;42.23;102257.38;10542757;28;20445;-83
2022/05/07 09:40:51;;;;;;;0.00;0.00;;;;;;;23.67;40.86;102256.13;10519108;28;20064;-84
2022/05/07 09:45:52;;;;;;;0.55;0.45;;;;;;;23.43;39.10;102264.16;10536670;28;20032;-83
2022/05/07 09:50:54;;;;;;;1.13;0.70;;;;;;;22.91;41.47;102256.53;10537801;28;20052;-80
2022/05/07 10:01:20;;;;;;;0.28;0.28;;;;;;;23.17;40.61;102255.53;10521319;28;20547;-83
2022/05/07 10:06:44;;;;;;;0.10;0.10;;;;;;;23.14;38.95;102259.06;10513926;28;20083;-83
2022/05/07 10:11:52;;;;;;;0.30;0.30;;;;;;;23.98;37.78;102261.19;10538815;28;20449;-83
2022/05/07 10:17:07;;;;;;;0.00;0.00;;;;;;;24.35;39.29;102259.06;10539300;28;20491;-83
2022/05/07 10:22:21;;;;;;;0.00;0.00;;;;;;;24.04;37.30;102251.47;10535452;28;20059;-82
2022/05/07 10:27:30;;;;;;;0.00;0.00;;;;;;;23.95;37.28;102251.53;10537287;28;20052;-82
2022/05/07 10:32:58;;;;;;;0.00;0.00;;;;;;;24.75;36.54;102244.59;10539324;28;20498;-84
2022/05/07 10:38:07;;;;;;;0.10;0.10;;;;;;;24.99;36.96;102238.13;10534203;28;20133;-82
2022/05/07 10:43:09;;;;;;;0.08;0.08;;;;;;;24.77;35.94;102241.94;10534391;28;20523;-83
2022/05/07 10:48:18;;;;;;;0.00;0.00;;;;;;;24.56;36.57;102233.38;10536704;28;20068;-81
2022/05/07 10:53:38;;;;;;;0.00;0.00;;;;;;;24.84;37.38;102230.41;10515550;28;20048;-83
2022/05/07 10:58:50;;;;;;;0.00;0.00;;;;;;;25.47;35.50;102224.28;10510603;28;20121;-79
2022/05/07 11:04:04;;;;;;;0.00;0.00;;;;;;;25.17;38.29;102220.31;10532677;28;20396;-82
2022/05/07 11:09:13;;;;;;;1.60;0.63;;;;;;;24.45;35.86;102215.06;10536551;28;20080;-83
2022/05/07 11:14:26;;;;;;;0.20;0.20;;;;;;;25.14;38.09;102217.72;10518309;28;20044;-79
2022/05/07 11:19:33;;;;;;;0.00;0.00;;;;;;;24.38;35.10;102209.00;10534320;28;20052;-79
2022/05/07 11:24:34;;;;;;;0.00;0.00;;;;;;;24.93;37.34;102206.59;10523090;28;20408;-79
2022/05/07 11:29:36;;;;;;;0.00;0.00;;;;;;;25.23;35.19;102204.41;10535771;28;20101;-77
2022/05/07 11:34:45;;;;;;;2.15;2.03;;;;;;;25.25;38.21;102202.63;10535684;28;20506;-80
2022/05/07 11:39:51;;;;;;;0.63;0.63;;;;;;;23.01;39.99;102197.78;10534251;28;20047;-81
2022/05/07 11:50:20;;;;;;;0.00;0.00;;;;;;;23.37;39.48;102194.97;10546170;28;20414;-80
2022/05/07 11:55:24;;;;;;;0.00;0.00;;;;;;;22.29;41.59;102196.31;10532550;28;20036;-79
2022/05/07 12:00:27;;;;;;;0.00;0.00;;;;;;;22.59;42.82;102190.09;10513543;28;20401;-80
2022/05/07 12:05:47;;;;;;;0.17;0.17;;;;;;;22.80;41.56;102194.41;10535839;28;20047;-80
2022/05/07 12:10:50;;;;;;;0.25;0.25;;;;;;;;;;10528820;28;20059;-79
2022/05/07 12:29:48;;;;;;;0.22;0.22;;;;;;;21.22;45.36;102199.78;10537540;28;20476;-80
2022/05/07 12:31:41;;;;;;;0.10;0.10;;;;;;;18.79;62.44;102212.75;10514912;28;20413;-83
2022/05/07 12:36:42;;;;;;;0.70;0.63;;;;;;;17.84;68.51;102226.97;10538630;28;20040;-80
2022/05/07 12:41:44;;;;;;;0.00;0.00;;;;;;;17.83;70.46;102235.66;10536852;28;20040;-80
2022/05/07 12:46:46;;;;;;;0.38;0.38;;;;;;;17.39;71.07;102247.00;10539494;28;20105;-79
2022/05/07 12:51:50;;;;;;;0.65;0.50;;;;;;;17.21;72.07;102259.69;10538230;28;20062;-79
2022/05/07 12:56:52;;;;;;;0.10;0.10;;;;;;;17.19;72.80;102271.78;10539973;28;20375;-79
2022/05/07 13:01:53;;;;;;;0.00;0.00;;;;;;;17.27;74.24;102273.72;10540908;28;20113;-79
2022/05/07 13:06:56;;;;;;;1.10;1.00;;;;;;;17.06;73.35;102281.97;10548123;28;20048;-80
2022/05/07 13:11:57;;;;;;;0.22;0.22;;;;;;;17.02;73.79;102294.88;10547372;28;20449;-80
2022/05/07 13:16:59;;;;;;;0.15;0.15;;;;;;;17.04;75.50;102304.47;10563985;28;20051;-79
2022/05/07 13:22:01;;;;;;;0.00;0.00;;;;;;;17.11;74.45;102316.78;10547105;28;20048;-79
2022/05/07 13:27:03;;;;;;;0.00;0.00;;;;;;;16.64;76.32;102334.81;10547019;28;20553;-79
2022/05/07 13:32:05;;;;;;;1.75;1.30;;;;;;;15.99;75.74;102338.38;10546876;28;20055;-79
2022/05/07 13:37:06;;;;;;;0.00;0.00;;;;;;;15.37;76.93;102345.31;10546372;28;20467;-77
2022/05/07 13:42:11;;;;;;;0.00;0.00;;;;;;;15.14;77.21;102349.84;10547385;28;20056;-78
2022/05/07 13:47:12;;;;;;;0.00;0.00;;;;;;;15.07;76.78;102334.91;10544959;28;20056;-79
2022/05/07 13:52:39;;;;;;;0.00;0.00;;;;;;;14.90;77.63;102309.31;10545230;28;20139;-79
2022/05/07 13:57:41;;;;;;;0.00;0.00;;;;;;;14.99;75.00;102281.91;10544819;28;20527;-79
2022/05/07 14:02:45;;;;;;;2.20;0.45;;;;;;;14.80;76.59;102255.38;10544794;28;20058;-80
2022/05/07 14:07:47;;;;;;;0.25;0.10;;;;;;;14.90;74.83;102226.28;10544194;28;20466;-80
2022/05/07 14:12:55;;;;;;;0.00;0.00;;;;;;;15.10;73.35;102212.13;10539960;28;20044;-79
2022/05/07 14:17:57;;;;;;;0.43;0.43;;;;;;;14.97;76.04;102216.09;10542977;28;20499;-80
2022/05/07 14:22:59;;;;;;;0.10;0.10;;;;;;;15.46;75.40;102212.22;10541497;28;20505;-80
2022/05/07 14:28:01;;;;;;;0.00;0.00;;;;;;;15.92;76.90;102219.50;10542838;28;20105;-80
2022/05/07 14:33:05;;;;;;;0.10;0.10;;;;;;;15.84;76.92;102235.78;10544269;28;20123;-80
2022/05/07 14:38:08;;;;;;;0.00;0.00;;;;;;;16.46;77.93;102234.66;10543607;28;20102;-80
2022/05/07 14:43:12;;;;;;;0.10;0.08;;;;;;;16.61;76.14;102220.22;10543570;28;20055;-80
2022/05/07 14:48:15;;;;;;;0.00;0.00;;;;;;;17.17;76.82;102219.69;10540240;28;20109;-81
2022/05/07 14:53:17;;;;;;;0.00;0.00;;;;;;;17.40;75.60;102225.31;10543651;28;20131;-79
2022/05/07 14:58:19;;;;;;;0.00;0.00;;;;;;;17.95;74.78;102219.38;10541874;28;20086;-81
2022/05/07 15:03:20;;;;;;;0.00;0.00;;;;;;;18.23;74.63;102222.41;10541856;28;20085;-81
2022/05/07 15:13:48;;;;;;;0.00;0.00;;;;;;;17.49;71.18;102224.63;10539880;28;20040;-81
2022/05/07 15:18:50;;;;;;;0.00;0.00;;;;;;;17.85;73.18;102227.84;10542287;28;20098;-81
2022/05/07 15:23:52;;;;;;;0.00;0.00;;;;;;;18.19;70.87;102224.09;10534947;28;20467;-81
2022/05/07 15:28:54;;;;;;;0.10;0.10;;;;;;;18.66;71.51;102215.16;10517456;28;20056;-81
2022/05/07 15:39:18;;;;;;;1.45;1.27;;;;;;;18.87;68.87;102214.59;10509668;28;20053;-80
2022/05/07 15:44:20;;;;;;;0.75;0.65;;;;;;;19.18;70.99;102224.53;10540113;28;20056;-81
2022/05/07 15:49:22;;;;;;;0.85;0.52;;;;;;;19.01;69.39;102221.72;10533248;28;20175;-81
2022/05/07 15:54:25;;;;;;;0.30;0.28;;;;;;;18.91;67.90;102228.56;10530579;28;20044;-80
2022/05/07 15:59:26;;;;;;;5.03;1.50;;;;;;;18.38;69.03;102229.59;10502252;28;20393;-81
2022/05/07 16:04:28;;;;;;;2.30;1.42;;;;;;;18.21;68.07;102234.53;10519837;28;20055;-81
2022/05/07 16:09:29;;;;;;;0.47;0.47;;;;;;;18.16;68.60;102228.38;10515112;28;20561;-81
2022/05/07 16:14:34;;;;;;;1.15;1.05;;;;;;;18.29;67.43;102230.31;10502226;28;20080;-80
2022/05/07 16:19:39;;;;;;;0.95;0.60;;;;;;;18.52;67.01;102228.06;10501041;28;20141;-81
2022/05/07 16:24:58;;;;;;;1.10;1.00;;;;;;;18.51;67.56;102226.28;10507980;28;20056;-79
2022/05/07 16:30:03;;;;;;;0.10;0.10;;;;;;;18.22;66.44;102231.06;10524584;28;20093;-78
2022/05/07 16:35:06;;;;;;;12.13;2.67;;;;;;;17.99;66.53;102242.00;10509483;28;20055;-77
2022/05/07 16:40:08;;;;;;;1.25;0.95;;;;;;;18.05;67.29;102236.94;10525157;28;20553;-76
2022/05/07 16:45:10;;;;;;;1.85;1.13;;;;;;;18.00;66.39;102242.91;10520832;28;20071;-77
2022/05/07 16:50:21;;;;;;;1.55;1.27;;;;;;;18.06;65.46;102241.25;10529555;28;20040;-78
2022/05/07 16:55:23;;;;;;;4.47;1.30;;;;;;;18.10;65.79;102243.94;10515573;28;20052;-77
2022/05/07 17:00:25;;;;;;;5.05;1.67;;;;;;;18.00;64.57;102255.94;10533699;28;20095;-78
2022/05/07 17:05:30;;;;;;;3.13;0.95;;;;;;;18.01;66.04;102265.53;10532143;28;20084;-77
2022/05/07 17:10:32;;;;;;;3.17;1.48;;;;;;;17.75;65.31;102264.19;10529528;28;20080;-79
2022/05/07 17:15:33;;;;;;;1.95;1.33;;;;;;;17.62;65.48;102270.00;10533111;28;20392;-78
2022/05/07 17:20:37;;;;;;;6.10;3.15;;;;;;;17.48;66.29;102266.28;10542773;28;20048;-77
2022/05/07 17:25:38;;;;;;;2.97;2.10;;;;;;;17.37;65.97;102272.19;10531755;28;20093;-79
2022/05/07 17:30:40;;;;;;;0.98;0.85;;;;;;;17.31;64.94;102282.47;10532333;28;20063;-78
2022/05/07 17:35:42;;;;;;;0.00;0.00;;;;;;;17.31;65.67;102277.28;10532535;28;20059;-77
2022/05/07 17:40:43;;;;;;;2.80;1.85;;;;;;;17.17;65.20;102289.09;10530285;28;20048;-78
2022/05/07 17:45:45;;;;;;;0.38;0.35;;;;;;;17.22;65.30;102298.78;10529734;28;20082;-78
2022/05/07 17:50:48;;;;;;;0.05;0.05;;;;;;;17.16;65.26;102295.19;10536228;28;20051;-77
2022/05/07 17:55:50;;;;;;;0.22;0.15;;;;;;;17.16;65.20;102300.41;10529017;28;20055;-78
2022/05/07 18:00:54;;;;;;;0.68;0.68;;;;;;;17.08;65.02;102301.13;10530253;28;20494;-78
2022/05/07 18:05:58;;;;;;;0.03;0.03;;;;;;;17.07;65.79;102309.75;10526188;28;20403;-77
2022/05/07 18:11:00;;;;;;;0.10;0.10;;;;;;;17.02;65.60;102311.38;10538455;28;20562;-78
2022/05/07 18:16:02;;;;;;;0.88;0.85;;;;;;;16.70;67.32;102319.31;10539272;28;20137;-78
2022/05/07 18:21:04;;;;;;;0.00;0.00;;;;;;;16.73;67.43;102329.78;10537895;28;20530;-78
2022/05/07 18:26:05;;;;;;;0.00;0.00;;;;;;;16.64;67.17;102324.41;10540345;28;20048;-78
2022/05/07 18:31:08;;;;;;;0.22;0.22;;;;;;;16.60;66.00;102327.75;10538692;28;20068;-80
2022/05/07 18:46:50;;;;;;;0.98;0.35;;;;;;;16.58;64.52;102350.22;10497784;28;20057;-78
2022/05/07 18:51:52;;;;;;;0.50;0.30;;;;;;;16.53;63.93;102351.84;10530996;28;20052;-78
2022/05/07 19:02:17;;;;;;;0.08;0.08;;;;;;;16.50;63.68;102363.94;10504525;28;20083;-79
2022/05/07 19:07:19;;;;;;;0.20;0.20;;;;;;;16.36;64.85;102374.84;10516948;28;20095;-79
2022/05/07 19:12:21;;;;;;;0.00;0.00;;;;;;;16.23;63.84;102368.44;10496519;28;20048;-78
2022/05/07 19:17:23;;;;;;;0.17;0.17;;;;;;;16.27;63.56;102373.78;10516002;28;20056;-78
2022/05/07 19:22:25;;;;;;;0.17;0.15;;;;;;;16.09;64.59;102376.78;10496111;28;20060;-78
2022/05/07 19:27:33;;;;;;;0.00;0.00;;;;;;;16.16;65.65;102386.50;10530313;28;20135;-79
2022/05/07 19:32:36;;;;;;;0.43;0.43;;;;;;;15.95;65.47;102402.38;10535467;28;20056;-78
2022/05/07 19:37:38;;;;;;;0.52;0.52;;;;;;;15.95;65.54;102398.91;10535588;28;20052;-77
2022/05/07 19:42:42;;;;;;;0.32;0.32;;;;;;;15.86;64.53;102404.75;10530195;28;20052;-78
2022/05/07 19:47:43;;;;;;;0.05;0.05;;;;;;;15.81;65.82;102401.09;10537129;28;20090;-78
2022/05/07 19:52:46;;;;;;;0.22;0.22;;;;;;;15.69;65.40;102418.09;10516300;28;20098;-79
2022/05/07 19:57:50;;;;;;;0.00;0.00;;;;;;;15.66;64.67;102433.59;10531543;28;20414;-79
2022/05/07 20:02:51;;;;;;;0.20;0.20;;;;;;;15.59;65.93;102441.19;10523703;28;20049;-80
2022/05/07 20:07:56;;;;;;;0.00;0.00;;;;;;;15.51;65.56;102441.81;10506203;28;20125;-79
2022/05/07 20:13:15;;;;;;;1.00;0.88;;;;;;;15.43;65.87;102445.91;10534256;28;20048;-80
2022/05/07 20:18:16;;;;;;;0.00;0.00;;;;;;;15.38;66.94;102453.56;10535313;28;20058;-80
2022/05/07 20:23:18;;;;;;;0.00;0.00;;;;;;;15.29;67.26;102465.38;10535570;28;20097;-80
2022/05/07 20:28:20;;;;;;;0.00;0.00;;;;;;;15.21;65.83;102471.22;10531892;28;20121;-79
2022/05/07 20:33:22;;;;;;;0.55;0.30;;;;;;;15.00;66.67;102479.16;10533425;28;20063;-80
2022/05/07 20:38:23;;;;;;;0.00;0.00;;;;;;;14.89;66.13;102484.00;10515920;28;20392;-80
2022/05/07 20:48:45;;;;;;;0.38;0.10;;;;;;;14.84;65.85;102506.34;10508450;28;20453;-79
2022/05/07 20:53:47;;;;;;;0.03;0.03;;;;;;;14.75;65.43;102508.59;10506869;28;20044;-81
2022/05/07 20:58:50;;;;;;;0.00;0.00;;;;;;;14.69;66.03;102513.59;10532683;28;20105;-79
2022/05/07 21:03:52;;;;;;;0.00;0.00;;;;;;;14.70;64.99;102515.34;10515344;28;20052;-78
2022/05/07 21:08:54;;;;;;;0.10;0.10;;;;;;;14.45;65.12;102522.22;10533718;28;20105;-78
2022/05/07 21:13:56;;;;;;;0.05;0.05;;;;;;;14.47;63.88;102515.41;10532887;28;20048;-78
2022/05/07 21:18:57;;;;;;;0.00;0.00;;;;;;;14.14;64.78;102526.28;10529354;28;20103;-80
2022/05/07 21:23:59;;;;;;;1.88;0.88;;;;;;;13.85;64.15;102530.41;10494684;28;20049;-80
2022/05/07 21:29:11;;;;;;;0.10;0.10;;;;;;;13.74;64.14;102530.84;10499622;28;20106;-80
2022/05/07 21:34:13;;;;;;;0.20;0.20;;;;;;;13.68;64.69;102542.66;10501693;28;20121;-79
2022/05/07 21:39:15;;;;;;;0.17;0.10;;;;;;;13.69;64.92;102552.19;10515185;28;20105;-78
2022/05/07 21:44:16;;;;;;;0.00;0.00;;;;;;;13.73;65.72;102549.81;10535463;28;20051;-78
2022/05/07 21:49:19;;;;;;;0.00;0.00;;;;;;;13.56;65.49;102546.56;10537515;28;20079;-79
2022/05/07 21:54:24;;;;;;;0.00;0.00;;;;;;;13.35;66.81;102548.25;10510574;28;20135;-80
2022/05/07 21:59:25;;;;;;;0.00;0.00;;;;;;;13.19;68.84;102550.19;10496118;28;20060;-80
2022/05/07 22:04:27;;;;;;;0.55;0.50;;;;;;;12.94;70.53;102564.69;10515942;28;20102;-80
2022/05/07 22:09:28;;;;;;;1.00;0.40;;;;;;;12.72;71.92;102567.16;10498224;28;20064;-80
2022/05/07 22:14:30;;;;;;;1.48;1.05;;;;;;;12.64;72.55;102572.88;10535182;28;20059;-81
2022/05/07 22:19:33;;;;;;;0.15;0.15;;;;;;;12.52;73.06;102574.94;10539478;28;20052;-80
2022/05/07 22:24:36;;;;;;;0.00;0.00;;;;;;;12.50;73.39;102567.13;10539641;28;20060;-79
2022/05/07 22:29:37;;;;;;;0.10;0.10;;;;;;;12.30;74.39;102576.53;10537153;28;20475;-80
2022/05/07 22:34:39;;;;;;;0.20;0.20;;;;;;;12.17;74.67;102576.81;10539178;28;20052;-80
2022/05/07 22:39:40;;;;;;;0.00;0.00;;;;;;;12.19;74.81;102570.88;10530562;28;20144;-79
2022/05/07 22:44:42;;;;;;;0.40;0.20;;;;;;;12.01;75.44;102578.66;10537973;28;20514;-80
2022/05/07 22:49:43;;;;;;;0.03;0.03;;;;;;;11.99;76.11;102577.69;10539066;28;20214;-80
2022/05/07 22:54:52;;;;;;;0.52;0.15;;;;;;;11.86;76.48;102583.06;10517380;28;20055;-77
2022/05/07 22:59:54;;;;;;;2.03;0.63;;;;;;;11.71;76.72;102591.88;10506442;28;20048;-78
2022/05/07 23:04:56;;;;;;;0.85;0.50;;;;;;;11.78;76.62;102592.16;10501134;28;20127;-76
2022/05/07 23:09:58;;;;;;;0.32;0.25;;;;;;;11.66;76.84;102603.63;10496486;28;20049;-78
2022/05/07 23:15:00;;;;;;;0.10;0.00;;;;;;;11.47;77.33;102606.13;10495943;28;20041;-77
2022/05/07 23:20:02;;;;;;;2.42;1.00;;;;;;;11.26;77.46;102619.75;10511979;28;20109;-78
2022/05/07 23:25:05;;;;;;;0.80;0.60;;;;;;;11.21;77.49;102618.59;10535318;28;20317;-77
2022/05/07 23:30:08;;;;;;;0.50;0.30;;;;;;;11.00;78.44;102623.56;10523595;28;20478;-76
2022/05/07 23:35:10;;;;;;;0.00;0.00;;;;;;;10.93;78.39;102632.66;10540784;28;20044;-76
2022/05/07 23:40:12;;;;;;;0.10;0.10;;;;;;;10.85;78.46;102639.09;10525040;28;20081;-78
2022/05/07 23:45:14;;;;;;;0.35;0.35;;;;;;;10.86;78.67;102640.88;10536210;28;20130;-78
2022/05/07 23:50:15;;;;;;;0.10;0.10;;;;;;;10.78;78.59;102638.78;10516901;28;20102;-78
2022/05/07 23:55:17;;;;;;;0.05;0.05;;;;;;;10.71;78.63;102657.31;10530559;28;20056;-78
